sensor_id;sensor_type;location;lat;lon;timestamp;P1;durP1;ratioP1;P2;durP2;ratioP2
22973;SDS011;11653;50.848;4.584;2022-11-12T00:00:19;21.47;;;13.47;;
22973;SDS011;11653;50.848;4.584;2022-11-12T00:02:45;18.30;;;12.50;;
22973;SDS011;11653;50.848;4.584;2022-11-12T00:05:10;22.60;;;14.87;;
22973;SDS011;11653;50.848;4.584;2022-11-12T00:07:36;20.33;;;13.33;;
22973;SDS011;11653;50.848;4.584;2022-11-12T00:10:02;19.53;;;13.10;;
22973;SDS011;11653;50.848;4.584;2022-11-12T00:12:28;19.87;;;12.90;;
22973;SDS011;11653;50.848;4.584;2022-11-12T00:14:54;18.30;;;12.73;;
22973;SDS011;11653;50.848;4.584;2022-11-12T00:17:20;16.80;;;12.20;;
22973;SDS011;11653;50.848;4.584;2022-11-12T00:19:45;19.63;;;13.47;;
22973;SDS011;11653;50.848;4.584;2022-11-12T00:22:11;21.10;;;13.27;;
22973;SDS011;11653;50.848;4.584;2022-11-12T00:24:37;20.07;;;12.93;;
22973;SDS011;11653;50.848;4.584;2022-11-12T00:27:02;19.13;;;13.10;;
22973;SDS011;11653;50.848;4.584;2022-11-12T00:29:28;16.93;;;12.10;;
22973;SDS011;11653;50.848;4.584;2022-11-12T00:31:53;16.07;;;11.63;;
22973;SDS011;11653;50.848;4.584;2022-11-12T00:34:19;15.10;;;11.80;;
22973;SDS011;11653;50.848;4.584;2022-11-12T00:36:45;17.00;;;11.77;;
22973;SDS011;11653;50.848;4.584;2022-11-12T00:39:10;15.97;;;11.33;;
22973;SDS011;11653;50.848;4.584;2022-11-12T00:41:36;15.70;;;10.80;;
22973;SDS011;11653;50.848;4.584;2022-11-12T00:44:02;18.53;;;11.70;;
22973;SDS011;11653;50.848;4.584;2022-11-12T00:46:28;16.87;;;11.73;;
22973;SDS011;11653;50.848;4.584;2022-11-12T00:48:54;16.80;;;11.63;;
22973;SDS011;11653;50.848;4.584;2022-11-12T00:51:19;16.80;;;11.17;;
22973;SDS011;11653;50.848;4.584;2022-11-12T00:53:49;16.40;;;11.70;;
22973;SDS011;11653;50.848;4.584;2022-11-12T00:56:15;14.87;;;11.03;;
22973;SDS011;11653;50.848;4.584;2022-11-12T00:58:41;14.23;;;10.50;;
22973;SDS011;11653;50.848;4.584;2022-11-12T01:01:07;18.27;;;12.33;;
22973;SDS011;11653;50.848;4.584;2022-11-12T01:03:35;18.03;;;11.00;;
22973;SDS011;11653;50.848;4.584;2022-11-12T01:06:02;18.17;;;12.33;;
22973;SDS011;11653;50.848;4.584;2022-11-12T01:08:29;16.13;;;11.47;;
22973;SDS011;11653;50.848;4.584;2022-11-12T01:10:56;20.40;;;12.57;;
22973;SDS011;11653;50.848;4.584;2022-11-12T01:13:28;19.17;;;11.87;;
22973;SDS011;11653;50.848;4.584;2022-11-12T01:15:54;15.53;;;11.20;;
22973;SDS011;11653;50.848;4.584;2022-11-12T01:18:20;20.60;;;13.37;;
22973;SDS011;11653;50.848;4.584;2022-11-12T01:20:45;20.33;;;13.07;;
22973;SDS011;11653;50.848;4.584;2022-11-12T01:23:11;14.87;;;10.23;;
22973;SDS011;11653;50.848;4.584;2022-11-12T01:25:37;16.00;;;11.70;;
22973;SDS011;11653;50.848;4.584;2022-11-12T01:28:02;17.33;;;12.87;;
22973;SDS011;11653;50.848;4.584;2022-11-12T01:30:28;24.80;;;15.33;;
22973;SDS011;11653;50.848;4.584;2022-11-12T01:32:55;31.63;;;20.43;;
22973;SDS011;11653;50.848;4.584;2022-11-12T01:35:20;19.53;;;13.43;;
22973;SDS011;11653;50.848;4.584;2022-11-12T01:37:46;18.30;;;12.10;;
22973;SDS011;11653;50.848;4.584;2022-11-12T01:40:12;18.10;;;11.43;;
22973;SDS011;11653;50.848;4.584;2022-11-12T01:42:39;16.57;;;11.10;;
22973;SDS011;11653;50.848;4.584;2022-11-12T01:45:11;13.93;;;9.70;;
22973;SDS011;11653;50.848;4.584;2022-11-12T01:47:41;15.90;;;10.97;;
22973;SDS011;11653;50.848;4.584;2022-11-12T01:52:52;18.30;;;12.30;;
22973;SDS011;11653;50.848;4.584;2022-11-12T01:55:23;20.57;;;13.83;;
22973;SDS011;11653;50.848;4.584;2022-11-12T02:00:32;19.30;;;11.17;;
22973;SDS011;11653;50.848;4.584;2022-11-12T02:02:58;15.07;;;10.93;;
22973;SDS011;11653;50.848;4.584;2022-11-12T02:05:26;16.03;;;11.10;;
22973;SDS011;11653;50.848;4.584;2022-11-12T02:07:53;18.40;;;11.83;;
22973;SDS011;11653;50.848;4.584;2022-11-12T02:10:21;17.17;;;12.20;;
22973;SDS011;11653;50.848;4.584;2022-11-12T02:12:47;20.97;;;13.47;;
22973;SDS011;11653;50.848;4.584;2022-11-12T02:15:35;21.97;;;14.23;;
22973;SDS011;11653;50.848;4.584;2022-11-12T02:18:02;19.63;;;13.53;;
22973;SDS011;11653;50.848;4.584;2022-11-12T02:20:33;21.17;;;13.33;;
22973;SDS011;11653;50.848;4.584;2022-11-12T02:23:01;19.23;;;12.97;;
22973;SDS011;11653;50.848;4.584;2022-11-12T02:25:27;16.60;;;11.60;;
22973;SDS011;11653;50.848;4.584;2022-11-12T02:27:53;16.63;;;11.03;;
22973;SDS011;11653;50.848;4.584;2022-11-12T02:30:34;18.67;;;11.97;;
22973;SDS011;11653;50.848;4.584;2022-11-12T02:33:07;17.30;;;11.77;;
22973;SDS011;11653;50.848;4.584;2022-11-12T02:35:33;16.17;;;10.90;;
22973;SDS011;11653;50.848;4.584;2022-11-12T02:37:59;16.07;;;10.87;;
22973;SDS011;11653;50.848;4.584;2022-11-12T02:40:25;18.10;;;11.73;;
22973;SDS011;11653;50.848;4.584;2022-11-12T02:42:50;15.50;;;10.90;;
22973;SDS011;11653;50.848;4.584;2022-11-12T02:45:16;18.27;;;11.70;;
22973;SDS011;11653;50.848;4.584;2022-11-12T02:47:43;17.77;;;11.37;;
22973;SDS011;11653;50.848;4.584;2022-11-12T02:50:09;21.60;;;12.83;;
22973;SDS011;11653;50.848;4.584;2022-11-12T02:52:34;16.17;;;11.70;;
22973;SDS011;11653;50.848;4.584;2022-11-12T02:55:00;15.80;;;11.20;;
22973;SDS011;11653;50.848;4.584;2022-11-12T02:57:26;18.57;;;11.70;;
22973;SDS011;11653;50.848;4.584;2022-11-12T02:59:54;18.80;;;12.63;;
22973;SDS011;11653;50.848;4.584;2022-11-12T03:02:20;21.20;;;13.60;;
22973;SDS011;11653;50.848;4.584;2022-11-12T03:04:45;16.50;;;12.50;;
22973;SDS011;11653;50.848;4.584;2022-11-12T03:07:11;19.57;;;13.17;;
22973;SDS011;11653;50.848;4.584;2022-11-12T03:09:36;19.80;;;13.40;;
22973;SDS011;11653;50.848;4.584;2022-11-12T03:12:02;20.23;;;13.40;;
22973;SDS011;11653;50.848;4.584;2022-11-12T03:14:28;21.73;;;13.77;;
22973;SDS011;11653;50.848;4.584;2022-11-12T03:16:53;21.13;;;13.40;;
22973;SDS011;11653;50.848;4.584;2022-11-12T03:19:19;22.23;;;13.53;;
22973;SDS011;11653;50.848;4.584;2022-11-12T03:21:45;28.13;;;17.50;;
22973;SDS011;11653;50.848;4.584;2022-11-12T03:24:10;29.80;;;19.53;;
22973;SDS011;11653;50.848;4.584;2022-11-12T03:26:36;28.93;;;16.57;;
22973;SDS011;11653;50.848;4.584;2022-11-12T03:29:02;23.23;;;13.27;;
22973;SDS011;11653;50.848;4.584;2022-11-12T03:31:28;25.33;;;14.90;;
22973;SDS011;11653;50.848;4.584;2022-11-12T03:33:54;21.80;;;14.93;;
22973;SDS011;11653;50.848;4.584;2022-11-12T03:36:19;26.47;;;17.17;;
22973;SDS011;11653;50.848;4.584;2022-11-12T03:38:45;26.47;;;15.73;;
22973;SDS011;11653;50.848;4.584;2022-11-12T03:41:10;23.57;;;16.13;;
22973;SDS011;11653;50.848;4.584;2022-11-12T03:43:36;29.27;;;17.77;;
22973;SDS011;11653;50.848;4.584;2022-11-12T03:46:02;27.70;;;19.30;;
22973;SDS011;11653;50.848;4.584;2022-11-12T03:48:27;31.17;;;19.63;;
22973;SDS011;11653;50.848;4.584;2022-11-12T03:50:57;33.43;;;21.23;;
22973;SDS011;11653;50.848;4.584;2022-11-12T03:53:23;34.30;;;20.80;;
22973;SDS011;11653;50.848;4.584;2022-11-12T03:55:49;32.43;;;19.73;;
22973;SDS011;11653;50.848;4.584;2022-11-12T03:58:14;22.30;;;14.53;;
22973;SDS011;11653;50.848;4.584;2022-11-12T04:00:40;38.77;;;23.63;;
22973;SDS011;11653;50.848;4.584;2022-11-12T04:03:06;41.00;;;22.80;;
22973;SDS011;11653;50.848;4.584;2022-11-12T04:05:31;35.87;;;22.07;;
22973;SDS011;11653;50.848;4.584;2022-11-12T04:08:20;35.50;;;20.13;;
22973;SDS011;11653;50.848;4.584;2022-11-12T04:11:06;30.83;;;20.23;;
22973;SDS011;11653;50.848;4.584;2022-11-12T04:13:34;27.60;;;17.13;;
22973;SDS011;11653;50.848;4.584;2022-11-12T04:16:09;22.83;;;14.63;;
22973;SDS011;11653;50.848;4.584;2022-11-12T04:18:56;21.93;;;14.13;;
22973;SDS011;11653;50.848;4.584;2022-11-12T04:22:14;24.73;;;14.70;;
22973;SDS011;11653;50.848;4.584;2022-11-12T04:24:35;21.07;;;14.43;;
22973;SDS011;11653;50.848;4.584;2022-11-12T04:27:28;21.67;;;14.10;;
22973;SDS011;11653;50.848;4.584;2022-11-12T04:29:55;24.47;;;14.60;;
22973;SDS011;11653;50.848;4.584;2022-11-12T04:32:48;26.33;;;14.93;;
22973;SDS011;11653;50.848;4.584;2022-11-12T04:35:15;22.83;;;15.27;;
22973;SDS011;11653;50.848;4.584;2022-11-12T04:37:42;22.43;;;14.57;;
22973;SDS011;11653;50.848;4.584;2022-11-12T04:40:29;21.63;;;13.73;;
22973;SDS011;11653;50.848;4.584;2022-11-12T04:43:13;19.30;;;12.50;;
22973;SDS011;11653;50.848;4.584;2022-11-12T04:45:59;17.30;;;11.93;;
22973;SDS011;11653;50.848;4.584;2022-11-12T04:48:27;19.27;;;12.47;;
22973;SDS011;11653;50.848;4.584;2022-11-12T04:50:56;17.00;;;12.13;;
22973;SDS011;11653;50.848;4.584;2022-11-12T04:53:24;18.33;;;12.27;;
22973;SDS011;11653;50.848;4.584;2022-11-12T04:55:51;17.97;;;12.10;;
22973;SDS011;11653;50.848;4.584;2022-11-12T04:58:18;23.87;;;14.70;;
22973;SDS011;11653;50.848;4.584;2022-11-12T05:00:45;17.27;;;12.60;;
22973;SDS011;11653;50.848;4.584;2022-11-12T05:03:10;16.80;;;12.60;;
22973;SDS011;11653;50.848;4.584;2022-11-12T05:05:36;15.17;;;11.50;;
22973;SDS011;11653;50.848;4.584;2022-11-12T05:08:02;16.23;;;12.23;;
22973;SDS011;11653;50.848;4.584;2022-11-12T05:10:28;18.07;;;12.20;;
22973;SDS011;11653;50.848;4.584;2022-11-12T05:12:54;17.50;;;12.00;;
22973;SDS011;11653;50.848;4.584;2022-11-12T05:15:20;20.37;;;12.43;;
22973;SDS011;11653;50.848;4.584;2022-11-12T05:17:46;16.90;;;10.97;;
22973;SDS011;11653;50.848;4.584;2022-11-12T05:20:12;17.27;;;11.53;;
22973;SDS011;11653;50.848;4.584;2022-11-12T05:22:38;18.33;;;11.50;;
22973;SDS011;11653;50.848;4.584;2022-11-12T05:25:04;17.63;;;12.07;;
22973;SDS011;11653;50.848;4.584;2022-11-12T05:27:31;17.03;;;11.30;;
22973;SDS011;11653;50.848;4.584;2022-11-12T05:29:57;17.13;;;12.40;;
22973;SDS011;11653;50.848;4.584;2022-11-12T05:32:23;15.90;;;11.83;;
22973;SDS011;11653;50.848;4.584;2022-11-12T05:34:49;18.23;;;12.43;;
22973;SDS011;11653;50.848;4.584;2022-11-12T05:37:15;19.13;;;14.33;;
22973;SDS011;11653;50.848;4.584;2022-11-12T05:39:41;17.20;;;12.77;;
22973;SDS011;11653;50.848;4.584;2022-11-12T05:42:06;21.23;;;14.20;;
22973;SDS011;11653;50.848;4.584;2022-11-12T05:44:32;21.67;;;13.73;;
22973;SDS011;11653;50.848;4.584;2022-11-12T05:46:58;18.73;;;12.67;;
22973;SDS011;11653;50.848;4.584;2022-11-12T05:49:24;18.57;;;12.97;;
22973;SDS011;11653;50.848;4.584;2022-11-12T05:51:50;26.77;;;17.13;;
22973;SDS011;11653;50.848;4.584;2022-11-12T05:54:16;26.57;;;14.57;;
22973;SDS011;11653;50.848;4.584;2022-11-12T05:56:42;23.17;;;15.13;;
22973;SDS011;11653;50.848;4.584;2022-11-12T05:59:09;21.63;;;14.50;;
22973;SDS011;11653;50.848;4.584;2022-11-12T06:01:36;21.03;;;14.67;;
22973;SDS011;11653;50.848;4.584;2022-11-12T06:04:08;23.23;;;13.77;;
22973;SDS011;11653;50.848;4.584;2022-11-12T06:06:35;24.93;;;14.33;;
22973;SDS011;11653;50.848;4.584;2022-11-12T06:09:01;25.40;;;14.10;;
22973;SDS011;11653;50.848;4.584;2022-11-12T06:11:27;20.90;;;14.37;;
22973;SDS011;11653;50.848;4.584;2022-11-12T06:13:53;22.73;;;13.93;;
22973;SDS011;11653;50.848;4.584;2022-11-12T06:16:19;20.43;;;13.30;;
22973;SDS011;11653;50.848;4.584;2022-11-12T06:18:44;20.77;;;14.73;;
22973;SDS011;11653;50.848;4.584;2022-11-12T06:21:10;24.77;;;15.30;;
22973;SDS011;11653;50.848;4.584;2022-11-12T06:23:49;24.13;;;14.83;;
22973;SDS011;11653;50.848;4.584;2022-11-12T06:26:20;25.27;;;14.30;;
22973;SDS011;11653;50.848;4.584;2022-11-12T06:28:47;23.20;;;14.60;;
22973;SDS011;11653;50.848;4.584;2022-11-12T06:31:13;21.57;;;13.30;;
22973;SDS011;11653;50.848;4.584;2022-11-12T06:33:39;19.70;;;13.73;;
22973;SDS011;11653;50.848;4.584;2022-11-12T06:36:06;21.90;;;13.43;;
22973;SDS011;11653;50.848;4.584;2022-11-12T06:38:32;18.60;;;12.77;;
22973;SDS011;11653;50.848;4.584;2022-11-12T06:40:59;20.67;;;12.67;;
22973;SDS011;11653;50.848;4.584;2022-11-12T06:43:26;18.27;;;12.50;;
22973;SDS011;11653;50.848;4.584;2022-11-12T06:45:57;21.03;;;12.97;;
22973;SDS011;11653;50.848;4.584;2022-11-12T06:48:27;18.43;;;11.43;;
22973;SDS011;11653;50.848;4.584;2022-11-12T06:50:53;17.93;;;10.97;;
22973;SDS011;11653;50.848;4.584;2022-11-12T06:53:20;19.33;;;11.67;;
22973;SDS011;11653;50.848;4.584;2022-11-12T06:55:45;19.47;;;11.70;;
22973;SDS011;11653;50.848;4.584;2022-11-12T06:58:11;17.93;;;11.87;;
22973;SDS011;11653;50.848;4.584;2022-11-12T07:00:37;15.10;;;10.77;;
22973;SDS011;11653;50.848;4.584;2022-11-12T07:03:09;17.27;;;11.13;;
22973;SDS011;11653;50.848;4.584;2022-11-12T07:05:37;17.03;;;10.90;;
22973;SDS011;11653;50.848;4.584;2022-11-12T07:08:03;15.80;;;10.80;;
22973;SDS011;11653;50.848;4.584;2022-11-12T07:10:30;16.23;;;11.20;;
22973;SDS011;11653;50.848;4.584;2022-11-12T07:12:56;16.07;;;11.33;;
22973;SDS011;11653;50.848;4.584;2022-11-12T07:15:22;17.90;;;10.70;;
22973;SDS011;11653;50.848;4.584;2022-11-12T07:17:48;12.37;;;9.07;;
22973;SDS011;11653;50.848;4.584;2022-11-12T07:20:14;15.73;;;10.47;;
22973;SDS011;11653;50.848;4.584;2022-11-12T07:22:40;14.97;;;10.83;;
22973;SDS011;11653;50.848;4.584;2022-11-12T07:25:06;19.23;;;11.67;;
22973;SDS011;11653;50.848;4.584;2022-11-12T07:27:32;14.93;;;9.50;;
22973;SDS011;11653;50.848;4.584;2022-11-12T07:29:57;13.43;;;9.80;;
22973;SDS011;11653;50.848;4.584;2022-11-12T07:32:23;14.00;;;10.37;;
22973;SDS011;11653;50.848;4.584;2022-11-12T07:34:49;13.67;;;10.37;;
22973;SDS011;11653;50.848;4.584;2022-11-12T07:37:15;14.40;;;10.53;;
22973;SDS011;11653;50.848;4.584;2022-11-12T07:39:41;14.87;;;10.17;;
22973;SDS011;11653;50.848;4.584;2022-11-12T07:42:07;14.20;;;10.80;;
22973;SDS011;11653;50.848;4.584;2022-11-12T07:44:33;19.07;;;14.30;;
22973;SDS011;11653;50.848;4.584;2022-11-12T07:46:58;17.97;;;13.10;;
22973;SDS011;11653;50.848;4.584;2022-11-12T07:49:24;19.93;;;13.20;;
22973;SDS011;11653;50.848;4.584;2022-11-12T07:51:50;27.13;;;17.13;;
22973;SDS011;11653;50.848;4.584;2022-11-12T07:54:15;24.07;;;16.63;;
22973;SDS011;11653;50.848;4.584;2022-11-12T07:56:41;14.67;;;11.53;;
22973;SDS011;11653;50.848;4.584;2022-11-12T07:59:06;18.90;;;14.10;;
22973;SDS011;11653;50.848;4.584;2022-11-12T08:01:33;23.90;;;16.03;;
22973;SDS011;11653;50.848;4.584;2022-11-12T08:04:04;31.93;;;19.97;;
22973;SDS011;11653;50.848;4.584;2022-11-12T08:06:33;23.87;;;16.60;;
22973;SDS011;11653;50.848;4.584;2022-11-12T08:09:00;30.63;;;19.73;;
22973;SDS011;11653;50.848;4.584;2022-11-12T08:11:27;23.53;;;16.63;;
22973;SDS011;11653;50.848;4.584;2022-11-12T08:13:53;23.77;;;17.10;;
22973;SDS011;11653;50.848;4.584;2022-11-12T08:16:19;24.37;;;16.90;;
22973;SDS011;11653;50.848;4.584;2022-11-12T08:18:44;25.70;;;17.17;;
22973;SDS011;11653;50.848;4.584;2022-11-12T08:21:12;30.27;;;18.57;;
22973;SDS011;11653;50.848;4.584;2022-11-12T08:23:39;40.30;;;21.93;;
22973;SDS011;11653;50.848;4.584;2022-11-12T08:26:06;30.93;;;20.03;;
22973;SDS011;11653;50.848;4.584;2022-11-12T08:28:33;35.33;;;19.83;;
22973;SDS011;11653;50.848;4.584;2022-11-12T08:31:04;43.67;;;25.17;;
22973;SDS011;11653;50.848;4.584;2022-11-12T08:33:32;39.17;;;23.70;;
22973;SDS011;11653;50.848;4.584;2022-11-12T08:36:01;38.97;;;24.07;;
22973;SDS011;11653;50.848;4.584;2022-11-12T08:38:31;29.73;;;19.70;;
22973;SDS011;11653;50.848;4.584;2022-11-12T08:41:04;37.97;;;19.83;;
22973;SDS011;11653;50.848;4.584;2022-11-12T08:43:31;28.90;;;19.10;;
22973;SDS011;11653;50.848;4.584;2022-11-12T08:45:57;33.27;;;20.33;;
22973;SDS011;11653;50.848;4.584;2022-11-12T08:48:24;25.93;;;17.10;;
22973;SDS011;11653;50.848;4.584;2022-11-12T08:50:50;21.93;;;15.33;;
22973;SDS011;11653;50.848;4.584;2022-11-12T08:53:16;20.07;;;14.53;;
22973;SDS011;11653;50.848;4.584;2022-11-12T08:55:41;18.20;;;14.10;;
22973;SDS011;11653;50.848;4.584;2022-11-12T08:58:07;23.57;;;13.47;;
22973;SDS011;11653;50.848;4.584;2022-11-12T09:00:36;18.63;;;12.27;;
22973;SDS011;11653;50.848;4.584;2022-11-12T09:03:04;20.93;;;12.67;;
22973;SDS011;11653;50.848;4.584;2022-11-12T09:05:31;15.00;;;10.90;;
22973;SDS011;11653;50.848;4.584;2022-11-12T09:07:58;13.83;;;9.83;;
22973;SDS011;11653;50.848;4.584;2022-11-12T09:10:25;13.87;;;10.47;;
22973;SDS011;11653;50.848;4.584;2022-11-12T09:12:51;13.97;;;10.60;;
22973;SDS011;11653;50.848;4.584;2022-11-12T09:15:18;14.67;;;11.00;;
22973;SDS011;11653;50.848;4.584;2022-11-12T09:17:44;15.47;;;10.37;;
22973;SDS011;11653;50.848;4.584;2022-11-12T09:20:10;15.73;;;10.53;;
22973;SDS011;11653;50.848;4.584;2022-11-12T09:22:36;14.97;;;10.73;;
22973;SDS011;11653;50.848;4.584;2022-11-12T09:25:02;14.73;;;10.10;;
22973;SDS011;11653;50.848;4.584;2022-11-12T09:27:28;14.90;;;11.07;;
22973;SDS011;11653;50.848;4.584;2022-11-12T09:29:54;18.43;;;10.90;;
22973;SDS011;11653;50.848;4.584;2022-11-12T09:32:19;16.70;;;10.03;;
22973;SDS011;11653;50.848;4.584;2022-11-12T09:34:45;13.60;;;9.90;;
22973;SDS011;11653;50.848;4.584;2022-11-12T09:37:11;15.13;;;9.10;;
22973;SDS011;11653;50.848;4.584;2022-11-12T09:39:36;14.17;;;8.67;;
22973;SDS011;11653;50.848;4.584;2022-11-12T09:42:11;11.43;;;8.47;;
22973;SDS011;11653;50.848;4.584;2022-11-12T09:44:39;9.60;;;8.17;;
22973;SDS011;11653;50.848;4.584;2022-11-12T09:49:54;11.67;;;8.23;;
22973;SDS011;11653;50.848;4.584;2022-11-12T09:52:23;11.47;;;7.30;;
22973;SDS011;11653;50.848;4.584;2022-11-12T09:54:53;9.73;;;7.10;;
22973;SDS011;11653;50.848;4.584;2022-11-12T09:57:37;9.73;;;7.37;;
22973;SDS011;11653;50.848;4.584;2022-11-12T10:00:24;8.40;;;6.00;;
22973;SDS011;11653;50.848;4.584;2022-11-12T10:05:55;5.40;;;4.73;;
22973;SDS011;11653;50.848;4.584;2022-11-12T10:11:17;7.97;;;4.53;;
22973;SDS011;11653;50.848;4.584;2022-11-12T10:17:07;6.17;;;4.90;;
22973;SDS011;11653;50.848;4.584;2022-11-12T10:25:26;5.00;;;4.43;;
22973;SDS011;11653;50.848;4.584;2022-11-12T10:27:53;4.57;;;4.07;;
22973;SDS011;11653;50.848;4.584;2022-11-12T10:30:21;3.97;;;3.53;;
22973;SDS011;11653;50.848;4.584;2022-11-12T10:32:48;6.60;;;4.00;;
22973;SDS011;11653;50.848;4.584;2022-11-12T10:35:17;4.60;;;3.97;;
22973;SDS011;11653;50.848;4.584;2022-11-12T10:37:48;4.07;;;3.43;;
22973;SDS011;11653;50.848;4.584;2022-11-12T10:42:59;7.27;;;4.30;;
22973;SDS011;11653;50.848;4.584;2022-11-12T10:45:27;4.40;;;3.55;;
22973;SDS011;11653;50.848;4.584;2022-11-12T10:47:53;4.47;;;3.40;;
22973;SDS011;11653;50.848;4.584;2022-11-12T10:50:20;4.93;;;3.47;;
22973;SDS011;11653;50.848;4.584;2022-11-12T10:53:03;3.72;;;3.17;;
22973;SDS011;11653;50.848;4.584;2022-11-12T10:55:31;4.70;;;3.67;;
22973;SDS011;11653;50.848;4.584;2022-11-12T10:58:03;7.15;;;3.90;;
22973;SDS011;11653;50.848;4.584;2022-11-12T11:00:30;4.57;;;3.70;;
22973;SDS011;11653;50.848;4.584;2022-11-12T11:02:55;5.00;;;3.70;;
22973;SDS011;11653;50.848;4.584;2022-11-12T11:08:02;6.05;;;4.00;;
22973;SDS011;11653;50.848;4.584;2022-11-12T11:16:00;6.10;;;3.47;;
22973;SDS011;11653;50.848;4.584;2022-11-12T11:18:32;4.22;;;3.38;;
22973;SDS011;11653;50.848;4.584;2022-11-12T11:24:06;4.63;;;3.55;;
22973;SDS011;11653;50.848;4.584;2022-11-12T11:56:22;5.47;;;3.83;;
22973;SDS011;11653;50.848;4.584;2022-11-12T12:04:44;5.15;;;3.17;;
22973;SDS011;11653;50.848;4.584;2022-11-12T12:07:42;3.40;;;2.72;;
22973;SDS011;11653;50.848;4.584;2022-11-12T12:13:03;6.18;;;3.10;;
22973;SDS011;11653;50.848;4.584;2022-11-12T12:23:34;6.93;;;4.23;;
22973;SDS011;11653;50.848;4.584;2022-11-12T12:26:09;6.00;;;2.87;;
22973;SDS011;11653;50.848;4.584;2022-11-12T12:28:46;3.73;;;2.30;;
22973;SDS011;11653;50.848;4.584;2022-11-12T12:31:23;3.93;;;2.23;;
22973;SDS011;11653;50.848;4.584;2022-11-12T12:33:56;3.50;;;2.63;;
22973;SDS011;11653;50.848;4.584;2022-11-12T12:36:30;5.07;;;3.23;;
22973;SDS011;11653;50.848;4.584;2022-11-12T12:39:03;4.13;;;2.50;;
22973;SDS011;11653;50.848;4.584;2022-11-12T12:44:29;6.13;;;2.73;;
22973;SDS011;11653;50.848;4.584;2022-11-12T12:47:20;2.87;;;2.23;;
22973;SDS011;11653;50.848;4.584;2022-11-12T12:49:46;4.30;;;2.70;;
22973;SDS011;11653;50.848;4.584;2022-11-12T12:52:14;5.20;;;2.97;;
22973;SDS011;11653;50.848;4.584;2022-11-12T13:02:54;5.03;;;2.60;;
22973;SDS011;11653;50.848;4.584;2022-11-12T13:05:21;4.73;;;2.73;;
22973;SDS011;11653;50.848;4.584;2022-11-12T13:07:55;2.77;;;2.30;;
22973;SDS011;11653;50.848;4.584;2022-11-12T13:15:46;5.07;;;2.83;;
22973;SDS011;11653;50.848;4.584;2022-11-12T13:21:07;6.03;;;3.00;;
22973;SDS011;11653;50.848;4.584;2022-11-12T13:23:46;6.03;;;2.70;;
22973;SDS011;11653;50.848;4.584;2022-11-12T13:26:44;4.73;;;2.97;;
22973;SDS011;11653;50.848;4.584;2022-11-12T13:29:23;4.80;;;3.17;;
22973;SDS011;11653;50.848;4.584;2022-11-12T13:32:22;5.70;;;3.40;;
22973;SDS011;11653;50.848;4.584;2022-11-12T13:34:50;4.23;;;3.10;;
22973;SDS011;11653;50.848;4.584;2022-11-12T13:37:42;4.97;;;3.00;;
22973;SDS011;11653;50.848;4.584;2022-11-12T13:40:16;3.67;;;2.93;;
22973;SDS011;11653;50.848;4.584;2022-11-12T13:42:45;5.00;;;3.33;;
22973;SDS011;11653;50.848;4.584;2022-11-12T13:45:14;6.13;;;3.37;;
22973;SDS011;11653;50.848;4.584;2022-11-12T13:47:42;5.53;;;3.20;;
22973;SDS011;11653;50.848;4.584;2022-11-12T13:50:09;3.83;;;2.60;;
22973;SDS011;11653;50.848;4.584;2022-11-12T13:52:41;6.03;;;2.83;;
22973;SDS011;11653;50.848;4.584;2022-11-12T13:57:39;5.83;;;2.97;;
22973;SDS011;11653;50.848;4.584;2022-11-12T14:00:09;5.80;;;2.57;;
22973;SDS011;11653;50.848;4.584;2022-11-12T14:02:35;4.73;;;2.70;;
22973;SDS011;11653;50.848;4.584;2022-11-12T14:05:03;5.77;;;2.90;;
22973;SDS011;11653;50.848;4.584;2022-11-12T14:07:48;4.03;;;2.60;;
22973;SDS011;11653;50.848;4.584;2022-11-12T14:13:23;4.27;;;3.30;;
22973;SDS011;11653;50.848;4.584;2022-11-12T14:16:02;10.93;;;5.70;;
22973;SDS011;11653;50.848;4.584;2022-11-12T14:21:35;4.83;;;3.33;;
22973;SDS011;11653;50.848;4.584;2022-11-12T14:24:01;4.43;;;3.30;;
22973;SDS011;11653;50.848;4.584;2022-11-12T14:26:46;6.43;;;3.73;;
22973;SDS011;11653;50.848;4.584;2022-11-12T14:29:17;5.63;;;3.30;;
22973;SDS011;11653;50.848;4.584;2022-11-12T14:31:43;5.13;;;4.37;;
22973;SDS011;11653;50.848;4.584;2022-11-12T14:34:20;5.73;;;3.30;;
22973;SDS011;11653;50.848;4.584;2022-11-12T14:36:50;7.63;;;5.27;;
22973;SDS011;11653;50.848;4.584;2022-11-12T14:39:19;7.00;;;3.50;;
22973;SDS011;11653;50.848;4.584;2022-11-12T14:41:46;6.07;;;4.30;;
22973;SDS011;11653;50.848;4.584;2022-11-12T14:44:32;7.33;;;3.33;;
22973;SDS011;11653;50.848;4.584;2022-11-12T14:47:00;4.83;;;3.00;;
22973;SDS011;11653;50.848;4.584;2022-11-12T14:52:14;6.17;;;3.27;;
22973;SDS011;11653;50.848;4.584;2022-11-12T14:54:45;5.97;;;3.73;;
22973;SDS011;11653;50.848;4.584;2022-11-12T14:57:25;5.67;;;3.50;;
22973;SDS011;11653;50.848;4.584;2022-11-12T14:59:52;4.47;;;3.53;;
22973;SDS011;11653;50.848;4.584;2022-11-12T15:02:21;4.43;;;3.57;;
22973;SDS011;11653;50.848;4.584;2022-11-12T15:05:09;5.93;;;3.43;;
22973;SDS011;11653;50.848;4.584;2022-11-12T15:07:53;5.40;;;4.03;;
22973;SDS011;11653;50.848;4.584;2022-11-12T15:10:35;8.33;;;5.97;;
22973;SDS011;11653;50.848;4.584;2022-11-12T15:13:09;10.17;;;6.63;;
22973;SDS011;11653;50.848;4.584;2022-11-12T15:15:51;9.50;;;6.70;;
22973;SDS011;11653;50.848;4.584;2022-11-12T15:18:26;9.23;;;6.73;;
22973;SDS011;11653;50.848;4.584;2022-11-12T15:21:13;10.37;;;5.17;;
22973;SDS011;11653;50.848;4.584;2022-11-12T15:23:46;8.23;;;4.47;;
22973;SDS011;11653;50.848;4.584;2022-11-12T15:26:34;7.77;;;4.40;;
22973;SDS011;11653;50.848;4.584;2022-11-12T15:31:42;7.47;;;4.33;;
22973;SDS011;11653;50.848;4.584;2022-11-12T15:37:08;7.60;;;5.13;;
22973;SDS011;11653;50.848;4.584;2022-11-12T15:39:40;9.37;;;5.23;;
22973;SDS011;11653;50.848;4.584;2022-11-12T15:42:16;11.63;;;7.97;;
22973;SDS011;11653;50.848;4.584;2022-11-12T15:44:49;20.37;;;13.30;;
22973;SDS011;11653;50.848;4.584;2022-11-12T15:47:21;10.50;;;8.73;;
22973;SDS011;11653;50.848;4.584;2022-11-12T15:49:47;13.37;;;10.70;;
22973;SDS011;11653;50.848;4.584;2022-11-12T15:52:18;14.93;;;10.97;;
22973;SDS011;11653;50.848;4.584;2022-11-12T15:54:44;8.60;;;7.43;;
22973;SDS011;11653;50.848;4.584;2022-11-12T15:57:17;16.13;;;9.43;;
22973;SDS011;11653;50.848;4.584;2022-11-12T15:59:44;15.23;;;7.63;;
22973;SDS011;11653;50.848;4.584;2022-11-12T16:02:11;13.33;;;8.63;;
22973;SDS011;11653;50.848;4.584;2022-11-12T16:04:38;10.67;;;8.60;;
22973;SDS011;11653;50.848;4.584;2022-11-12T16:07:04;10.30;;;7.03;;
22973;SDS011;11653;50.848;4.584;2022-11-12T16:09:31;10.03;;;7.47;;
22973;SDS011;11653;50.848;4.584;2022-11-12T16:11:58;11.63;;;7.27;;
22973;SDS011;11653;50.848;4.584;2022-11-12T16:14:24;15.07;;;9.27;;
22973;SDS011;11653;50.848;4.584;2022-11-12T16:16:51;8.40;;;5.27;;
22973;SDS011;11653;50.848;4.584;2022-11-12T16:19:16;7.87;;;6.37;;
22973;SDS011;11653;50.848;4.584;2022-11-12T16:21:42;12.07;;;9.77;;
22973;SDS011;11653;50.848;4.584;2022-11-12T16:24:08;8.67;;;6.50;;
22973;SDS011;11653;50.848;4.584;2022-11-12T16:26:33;11.00;;;7.80;;
22973;SDS011;11653;50.848;4.584;2022-11-12T16:29:00;15.37;;;9.90;;
22973;SDS011;11653;50.848;4.584;2022-11-12T16:31:26;18.80;;;12.33;;
22973;SDS011;11653;50.848;4.584;2022-11-12T16:33:52;16.77;;;12.07;;
22973;SDS011;11653;50.848;4.584;2022-11-12T16:36:18;14.27;;;9.37;;
22973;SDS011;11653;50.848;4.584;2022-11-12T16:38:44;14.10;;;10.60;;